Portada
METAR-TAF:

METAR-TAF

Aeroports :

Tsingtao, Xina

latitud: 36-04N, longitud: 120-20E, altitud: 77 m

Observació

L'informe es va fer fa 1 hora i 5 minuts, a les 04:00 UTC
Vent 2 kt amb direcció variable
Temperatura 5°C
Humitat 81%
Pressió 1021 hPa
Visibilitat 10 km o més
Núvols disperses a una alçada de 1500 ft
Cel cobert a una alçada de 3000 ft

METAR: ZSQD 280400Z VRB01MPS 9999 SCT015 OVC030 05/02 Q1021 NOSIG

Hora: 13:05 (05:05 UTC)

Pronòstic

L'informe es va fer fa 7 hores i 58 minuts, a les 21:07 UTC
Pronòstic vàlid del 28 a les 00 UTC al 28 a les 24 UTC
Vent 10 kt del Sud
Visibilitat: 3500 m
Cel cobert a una alçada de 2000 ft
boirina
Evolucionant progressivament
l' 28 a les 14 UTC al 28 a les 15 UTC
Vent 6 kt del Nord
Visibilitat: 2500 m

TAF: ZSQD 272107Z 2800/2824 19005MPS 3500 BR OVC020 TX08/2806Z TN00/2821Z BECMG 2814/2815 01003MPS 2500

Observacions i pronòstics meteorològics de més de 4000 aeroports (METAR i TAF).

Les estacions disponibles són els punts grocs i vermells al mapa.

Posi el ratolí al punt desitjat per veure el nom de l'estació.

Feu clic per veure les observacions i els pronòstics meteorològics.

Per canviar el mapa: feu clic els botons verds amb una creu de color negre per apropar; al botó verd amb un guió per allunyar la imatge; o en les fletxes verdes per a mapes adjacents.


METAR-TAF: